Latest Weather Observations for Walgett

IDN60801

Issued at 12:02 pm EST Sunday 1 May 2016 (issued every 30 minutes, with the page automatically refreshed every 10 minutes)

About weather observations | Map of weather stations | Latest weather observations for NSW | Other Formats
Station Details ID: 052088 Name: WALGETT AIRPORT AWS Lat: -30.04 Lon: 148.12 Height: 133.0 m
Data from the previous 72 hours. | See also: Recent months at Walgett
Date/Time
EST
Temp
°C
App
Temp
°C
Dew
Point
Rel
Hum
%
Delta-T
°C
Wind Press
QNH
hPa
Press
MSL
hPa
Rain
since 9 am
mm
Dir
 
Spd
km/h
Gust
km/h
Spd
kts
Gust
kts
01/11:30am 19.3 18.9 18.0 92 0.8 NNE 17 20 9 11 1017.5 1017.3 1.6
01/11:00am 19.2 18.2 18.0 93 0.7 NNE 20 28 11 15 1018.1 1018.0 1.6
01/10:30am 19.0 18.6 18.0 94 0.6 NNE 17 20 9 11 1018.2 1018.1 1.2
01/10:19am 19.0 18.2 18.0 94 0.6 NE 19 24 10 13 1018.2 1018.1 1.2
01/10:07am 19.0 18.9 17.8 93 0.7 NNE 15 20 8 11 1018.4 1018.3 1.2
01/10:00am 19.0 19.2 17.7 92 0.8 NNE 13 17 7 9 1018.7 1018.6 0.8
01/09:30am 19.2 19.8 17.7 91 0.9 NNE 11 13 6 7 1018.9 1018.5 0.4
01/09:07am 19.2 19.5 17.0 87 1.3 NE 11 19 6 10 1018.8 1018.4 0.0
01/09:00am 19.1 20.4 17.1 88 1.2 ENE 6 9 3 5 1019.2 1018.8 1.4
01/08:34am 19.4 20.3 16.6 84 1.7 SSE 7 9 4 5 1019.2 1018.8 0.6
01/08:30am 19.6 20.5 16.6 83 1.8 SSE 7 13 4 7 1019.1 1018.7 0.0
01/08:00am 19.9 21.0 16.5 81 2.1 S 6 7 3 4 1019.1 1018.7 0.0
01/07:30am 19.9 19.9 16.2 79 2.2 SW 11 15 6 8 1019.0 1018.6 0.0
01/07:00am 19.8 19.7 16.1 79 2.2 SSE 11 17 6 9 1017.9 1017.5 0.0
01/06:30am 19.8 18.6 16.1 79 2.2 SSW 17 24 9 13 1017.6 1017.2 0.0
01/06:00am 19.7 18.9 16.0 79 2.2 SSW 15 22 8 12 1017.6 1017.2 0.0
01/05:30am 19.8 18.0 15.9 78 2.3 SW 20 28 11 15 1017.5 1017.1 0.0
01/05:00am 20.3 16.4 15.5 74 2.9 SW 30 39 16 21 1017.3 1016.9 0.0
01/04:30am 22.1 18.4 15.9 68 3.8 WSW 30 46 16 25 1016.7 1016.4 0.0
01/04:29am 22.4 19.1 16.0 67 3.9 WSW 28 46 15 25 1016.6 1016.3 0.0
01/04:26am 23.2 20.8 16.3 65 4.2 W 24 46 13 25 1016.5 1016.2 0.0
01/04:00am 22.6 21.9 16.4 68 3.8 N 15 20 8 11 1015.1 1014.7 0.0
01/03:30am 22.3 21.3 16.6 70 3.5 NNE 17 22 9 12 1014.7 1014.3 0.0
01/03:00am 21.4 20.9 17.0 76 2.7 NNE 15 19 8 10 1014.5 1014.1 0.0
01/02:30am 19.2 19.0 15.7 80 2.1 NNE 11 13 6 7 1014.8 1014.4 0.0
01/02:00am 18.8 18.8 15.1 79 2.2 NE 9 11 5 6 1014.9 1014.5 0.0
01/01:30am 19.9 19.9 16.2 79 2.2 NE 11 13 6 7 1014.9 1014.5 0.0
01/01:00am 19.1 19.6 15.6 80 2.1 NE 7 7 4 4 1015.0 1014.6 0.0
01/12:30am 19.5 20.1 15.8 79 2.2 NE 7 9 4 5 1015.2 1014.9 0.0
01/12:00am 19.6 19.6 15.3 76 2.5 NE 9 11 5 6 1015.5 1015.2 0.0
 
Date/Time
EST
Temp
°C
App
Temp
°C
Dew
Point
Rel
Hum
%
Delta-T
°C
Wind Press
QNH
hPa
Press
MSL
hPa
Rain
since 9 am
mm
Dir
 
Spd
km/h
Gust
km/h
Spd
kts
Gust
kts
30/11:30pm 20.3 20.0 15.5 74 2.9 NE 11 13 6 7 1015.6 1015.3 0.0
30/11:00pm 20.8 21.0 15.8 73 3.0 ENE 9 11 5 6 1015.9 1015.6 0.0
30/10:30pm 21.1 21.0 15.0 68 3.6 ENE 9 11 5 6 1016.1 1015.8 0.0
30/10:00pm 21.7 21.9 14.6 64 4.2 E 7 9 4 5 1016.3 1016.0 0.0
30/09:30pm 22.9 22.9 15.2 62 4.6 ESE 9 11 5 6 1016.6 1016.3 0.0
30/09:00pm 23.9 23.3 15.7 60 5.0 ENE 13 17 7 9 1016.6 1016.3 0.0
30/08:30pm 23.8 23.4 14.2 55 5.7 E 9 11 5 6 1016.3 1016.0 0.0
30/08:00pm 24.4 23.7 14.2 53 6.0 E 11 17 6 9 1016.3 1016.0 0.0
30/07:30pm 23.7 23.0 13.3 52 6.1 ESE 9 13 5 7 1016.3 1016.0 0.0
30/07:00pm 24.1 23.3 13.9 53 6.0 NE 11 13 6 7 1016.2 1015.9 0.0
30/06:30pm 23.7 22.8 13.8 53 5.8 NE 11 13 6 7 1016.2 1015.9 0.0
30/06:00pm 24.9 24.0 13.8 50 6.6 NE 11 13 6 7 1016.2 1015.9 0.0
30/05:30pm 26.1 25.9 13.6 46 7.4 ENE 7 7 4 4 1016.2 1015.9 0.0
30/05:00pm 27.0 26.6 14.1 45 7.7 ESE 9 11 5 6 1015.8 1015.5 0.0
30/04:30pm 27.8 26.3 14.1 43 8.2 SSE 15 20 8 11 1016.0 1015.7 0.0
30/04:00pm 27.9 25.6 14.2 43 8.2 S 19 24 10 13 1016.1 1015.8 0.0
30/03:30pm 28.6 26.4 14.8 43 8.4 S 20 24 11 13 1016.2 1015.9 0.0
30/03:00pm 28.3 26.9 15.6 46 7.8 S 17 26 9 14 1016.2 1015.9 0.0
30/02:30pm 28.3 26.7 15.9 47 7.7 SSW 19 22 10 12 1016.4 1016.1 0.0
30/02:00pm 27.2 25.4 15.6 49 7.1 S 19 24 10 13 1016.5 1016.2 0.0
30/01:30pm 27.2 26.0 16.2 51 6.8 S 17 22 9 12 1016.8 1016.5 0.0
30/01:00pm 27.0 26.3 16.3 52 6.6 SSW 15 19 8 10 1017.3 1016.9 0.0
30/12:30pm 26.9 26.4 15.9 51 6.8 SSW 13 20 7 11 1017.3 1016.9 0.0
30/12:00pm 26.9 27.3 16.2 52 6.6 SW 9 11 5 6 1017.8 1017.4 0.0
30/11:30am 26.7 27.7 16.3 53 6.4 NW 6 11 3 6 1018.1 1017.7 0.0
30/11:00am 26.6 26.1 16.8 55 6.1 N 15 20 8 11 1018.2 1017.8 0.0
30/10:30am 25.8 25.5 16.4 56 5.8 N 13 17 7 9 1018.6 1018.2 0.0
30/10:00am 25.2 25.0 16.6 59 5.3 NNW 13 20 7 11 1019.2 1018.8 0.0
30/09:30am 24.2 23.8 16.2 61 4.9 NNE 13 19 7 10 1019.1 1018.7 0.0
30/09:00am 23.1 21.8 15.7 63 4.5 NNE 17 20 9 11 1019.2 1018.8 0.0
30/08:30am 23.0 22.4 15.6 63 4.5 NE 13 17 7 9 1019.3 1018.9 0.0
30/08:00am 21.9 21.7 14.8 64 4.2 E 9 13 5 7 1019.4 1019.0 0.0
30/07:30am 20.9 20.6 14.3 66 3.9 E 9 13 5 7 1019.1 1018.7 0.0
30/07:00am 19.2 18.7 12.7 66 3.7 ESE 7 9 4 5 1018.9 1018.5 0.0
30/06:30am 19.6 19.2 13.1 66 3.7 SSE 7 9 4 5 1018.5 1018.1 0.0
30/06:00am 20.4 19.9 13.8 66 3.8 NE 9 13 5 7 1018.1 1017.7 0.0
30/05:30am 21.5 22.9 14.4 64 4.2 CALM 0 0 0 0 1018.2 1017.8 0.0
30/05:00am 22.2 22.4 14.3 61 4.6 SW 6 11 3 6 1018.0 1017.6 0.0
30/04:30am 22.4 21.4 14.5 61 4.7 SW 13 19 7 10 1017.7 1017.3 0.0
30/04:00am 22.2 18.9 14.1 60 4.7 NNE 24 33 13 18 1016.8 1016.5 0.0
30/03:30am 22.4 19.0 13.7 58 5.1 NNE 24 32 13 17 1016.6 1016.3 0.0
30/03:00am 22.7 19.1 13.2 55 5.5 NNE 24 32 13 17 1016.7 1016.4 0.0
30/02:30am 22.9 19.5 12.5 52 6.0 NNE 22 32 12 17 1016.8 1016.5 0.0
30/02:00am 22.0 19.7 11.7 52 5.8 NE 15 22 8 12 1017.0 1016.7 0.0
30/01:30am 20.9 18.7 10.7 52 5.6 NE 13 17 7 9 1017.4 1017.0 0.0
30/01:00am 20.6 18.4 10.7 53 5.4 NE 13 17 7 9 1017.4 1017.0 0.0
30/12:30am 19.6 17.6 10.3 55 5.0 NE 11 13 6 7 1017.5 1017.1 0.0
30/12:00am 20.6 18.8 11.0 54 5.3 NE 11 13 6 7 1017.6 1017.2 0.0
 
Date/Time
EST
Temp
°C
App
Temp
°C
Dew
Point
Rel
Hum
%
Delta-T
°C
Wind Press
QNH
hPa
Press
MSL
hPa
Rain
since 9 am
mm
Dir
 
Spd
km/h
Gust
km/h
Spd
kts
Gust
kts
29/11:30pm 20.8 18.6 10.9 53 5.5 NE 13 17 7 9 1017.8 1017.4 0.0
29/11:00pm 21.1 18.9 10.9 52 5.6 NE 13 15 7 8 1018.0 1017.6 0.0
29/10:30pm 20.6 18.5 11.0 54 5.3 NE 13 15 7 8 1018.6 1018.2 0.0
29/10:00pm 21.9 19.8 11.0 50 6.0 NE 13 15 7 8 1018.3 1017.9 0.0
29/09:30pm 22.9 20.8 11.3 48 6.5 NE 13 17 7 9 1018.4 1018.0 0.0
29/09:00pm 23.4 21.5 11.8 48 6.6 NE 13 17 7 9 1018.6 1018.2 0.0
29/08:30pm 23.1 21.2 11.8 49 6.4 NE 13 17 7 9 1018.5 1018.1 0.0
29/08:00pm 23.0 21.1 11.7 49 6.4 NE 13 17 7 9 1018.4 1018.0 0.0
29/07:30pm 22.7 21.4 11.4 49 6.3 NE 9 11 5 6 1018.4 1018.0 0.0
29/07:00pm 23.4 21.8 11.5 47 6.7 NE 11 11 6 6 1018.2 1017.8 0.0
29/06:30pm 24.1 22.6 11.8 46 7.0 NE 11 13 6 7 1017.9 1017.5 0.0
29/06:00pm 24.6 23.0 11.5 44 7.4 NNE 11 13 6 7 1018.0 1017.6 0.0
29/05:30pm 26.5 24.2 11.8 40 8.5 NNE 15 19 8 10 1017.9 1017.5 0.0
29/05:00pm 27.3 24.7 12.1 39 8.8 NNE 17 20 9 11 1017.7 1017.3 0.0
29/04:30pm 28.0 25.4 12.0 37 9.3 NNE 17 24 9 13 1017.7 1017.3 0.0
29/04:00pm 28.7 25.8 12.2 36 9.6 NNE 19 24 10 13 1017.5 1017.1 0.0
29/03:30pm 28.7 25.2 12.2 36 9.7 N 22 28 12 15 1017.5 1017.1 0.0
29/03:00pm 28.8 25.1 12.7 37 9.5 NNE 24 32 13 17 1017.5 1017.1 0.0
29/02:30pm 28.7 25.9 12.6 37 9.5 N 19 26 10 14 1017.4 1017.0 0.0
29/02:00pm 28.9 25.6 12.8 37 9.5 N 22 32 12 17 1017.6 1017.2 0.0
29/01:30pm 28.3 24.9 12.6 38 9.2 N 22 33 12 18 1018.1 1017.7 0.0
29/01:00pm 28.6 25.0 12.9 38 9.3 NNE 24 33 13 18 1018.4 1018.0 0.0
29/12:30pm 27.4 24.2 13.0 41 8.5 N 22 32 12 17 1019.0 1018.6 0.0
29/12:00pm 26.8 23.1 12.8 42 8.2 N 24 35 13 19 1019.8 1019.4 0.0
29/11:30am 27.1 23.1 13.1 42 8.3 N 26 37 14 20 1020.2 1019.8 0.0
29/11:00am 27.1 22.6 12.7 41 8.4 NNE 28 41 15 22 1020.7 1020.3 0.0
29/10:30am 26.6 22.2 13.0 43 8.0 NNE 28 35 15 19 1021.3 1020.9 0.0
29/10:00am 25.6 21.2 12.8 45 7.4 NNE 28 41 15 22 1021.8 1021.5 0.0
29/09:30am 25.2 21.3 13.4 48 6.9 NNE 26 35 14 19 1022.2 1021.9 0.0
29/09:00am 23.8 19.2 13.6 52 6.0 NNE 30 43 16 23 1022.0 1021.7 0.0
29/08:30am 22.8 19.0 13.6 56 5.4 NNE 26 33 14 18 1022.0 1021.7 0.0
29/08:00am 21.5 18.4 13.4 60 4.7 NE 22 32 12 17 1022.0 1021.7 0.0
29/07:30am 19.4 17.0 12.7 65 3.8 NE 17 19 9 10 1021.7 1021.4 0.0
29/07:00am 17.7 15.4 11.9 69 3.2 NE 15 17 8 9 1021.7 1021.4 0.0
29/06:30am 17.4 15.0 11.4 68 3.3 NE 15 19 8 10 1021.3 1020.9 0.0
29/06:00am 17.6 15.1 11.2 66 3.5 NE 15 19 8 10 1021.1 1020.7 0.0
29/05:30am 17.9 15.0 11.0 64 3.8 NE 17 20 9 11 1020.7 1020.3 0.0
29/05:00am 18.0 14.4 10.6 62 4.0 NE 20 24 11 13 1020.5 1020.1 0.0
29/04:30am 17.9 14.3 9.8 59 4.3 NE 19 26 10 14 1020.3 1019.9 0.0
29/04:00am 17.9 14.5 9.3 57 4.5 NE 17 20 9 11 1020.1 1019.7 0.0
29/03:30am 17.9 14.4 8.7 55 4.8 NE 17 20 9 11 1020.3 1019.9 0.0
29/03:00am 18.6 15.1 8.8 53 5.1 NE 17 22 9 12 1020.4 1020.0 0.0
29/02:30am 19.0 15.2 9.2 53 5.2 NE 19 24 10 13 1020.3 1019.9 0.0
29/02:00am 18.1 14.7 7.5 50 5.4 NE 15 19 8 10 1020.7 1020.3 0.0
29/01:30am 19.1 15.6 7.2 46 6.1 ENE 15 20 8 11 1020.6 1020.2 0.0
29/01:00am 18.1 14.5 6.6 47 5.7 E 15 20 8 11 1020.6 1020.2 0.0
29/12:30am 17.1 14.7 6.9 51 5.1 E 9 15 5 8 1020.5 1020.1 0.0
29/12:00am 15.6 13.6 6.1 53 4.6 E 6 7 3 4 1020.7 1020.3 0.0
 
Date/Time
EST
Temp
°C
App
Temp
°C
Dew
Point
Rel
Hum
%
Delta-T
°C
Wind Press
QNH
hPa
Press
MSL
hPa
Rain
since 9 am
mm
Dir
 
Spd
km/h
Gust
km/h
Spd
kts
Gust
kts
28/11:30pm 15.3 13.0 5.5 52 4.7 E 7 7 4 4 1020.7 1020.3 0.0
28/11:00pm 15.4 14.0 5.3 51 4.8 E 2 9 1 5 1020.9 1020.5 0.0
28/10:30pm 16.2 15.6 7.2 55 4.5 CALM 0 0 0 0 1021.4 1021.0 0.0
28/10:00pm 16.8 16.1 6.9 52 4.9 CALM 0 0 0 0 1021.2 1020.8 0.0
28/09:30pm 17.7 16.3 7.4 51 5.2 E 4 6 2 3 1021.1 1020.7 0.0
28/09:00pm 18.1 16.3 7.2 49 5.5 E 6 6 3 3 1020.6 1020.2 0.0
28/08:30pm 19.1 17.6 8.4 50 5.6 E 6 7 3 4 1020.6 1020.2 0.0
28/08:00pm 19.1 17.2 6.6 44 6.3 E 6 11 3 6 1020.4 1020.0 0.0
28/07:30pm 20.1 19.5 7.5 44 6.5 CALM 0 0 0 0 1020.4 1020.0 0.0
28/07:00pm 21.7 21.0 8.6 43 6.9 ENE 2 6 1 3 1020.3 1019.9 0.0
28/06:30pm 22.8 21.0 7.8 38 7.9 ENE 7 9 4 5 1020.0 1019.6 0.0
28/06:00pm 24.7 22.7 8.6 36 8.7 NE 9 11 5 6 1019.8 1019.4 0.0
28/05:30pm 26.2 23.5 9.1 34 9.4 NE 13 20 7 11 1019.8 1019.4 0.0
28/05:00pm 27.1 23.7 9.0 32 10.0 NE 17 20 9 11 1019.9 1019.5 0.0
28/04:30pm 27.3 23.9 9.2 32 10.0 NNE 17 24 9 13 1019.7 1019.3 0.0
28/04:00pm 28.1 25.5 9.4 31 10.4 NNE 13 19 7 10 1019.8 1019.4 0.0
28/03:30pm 28.9 25.9 9.1 29 11.0 ENE 15 20 8 11 1019.7 1019.3 0.0
28/03:00pm 29.0 26.3 10.2 31 10.6 ENE 15 28 8 15 1019.8 1019.4 0.0
28/02:30pm 29.3 26.2 10.4 31 10.8 NE 17 26 9 14 1019.8 1019.4 0.0
28/02:00pm 28.4 25.2 10.1 32 10.3 NE 17 28 9 15 1020.1 1019.7 0.0
28/01:30pm 28.5 24.8 10.2 32 10.4 N 20 28 11 15 1020.4 1020.0 0.0
28/01:00pm 27.9 24.5 10.6 34 9.8 N 19 28 10 15 1020.8 1020.4 0.0
28/12:30pm 27.9 24.4 11.0 35 9.7 NE 20 35 11 19 1021.4 1021.0 0.0

Other Formats:

Comma delimited format used in spreadsheet applications
http://www.bom.gov.au/fwo/IDN60801/IDN60801.95715.axf

JavaScript Object Notation format (JSON) in row-major order
http://www.bom.gov.au/fwo/IDN60801/IDN60801.95715.json